MKJS/MBJ METAR and TAF weather

Enter ICAO airport designator
Station Type Date Time Source
MKJS METAR 2019/12/10 19:00 UTC NOAA

MKJS 101900Z 07017KT 9999 FEW022 30/24 Q1013


Station Type Date Time Source
MKJS Decoded METAR 2019/12/10 19:00 UTC NOAA

Montego Bay / Sangster, Jamaica (MKJS) 18-30N 077-55W 8M
Dec 10, 2019 - 02:00 PM EST / 2019.12.10 1900 UTC
Wind: from the ENE (070 degrees) at 20 MPH (17 KT):0
Visibility: greater than 7 mile(s):0
Sky conditions: mostly clear
Temperature: 86 F (30 C)
Heat index: 95.0 F (35.0 C):1
Dew Point: 75 F (24 C)
Relative Humidity: 70%
Pressure (altimeter): 29.91 in. Hg (1013 hPa)
ob: MKJS 101900Z 07017KT 9999 FEW022 30/24 Q1013
cycle: 19

Station Type Date Time Source
MKJS TAF 2019/12/10 18:19 UTC NOAA

TAF MKJS 101715Z 1018/1118 07018KT 9999 SCT022
BECMG 1102/1104 14005KT FEW024
BECMG 1114/1116 07020KT

Example: see airport list